createdAt,value
2022-09-10T00:01:22.347Z,101778.88
2022-09-10T00:03:51.126Z,101784.09
2022-09-10T00:06:20.059Z,101772.78
2022-09-10T00:08:49.370Z,101778.78
2022-09-10T00:11:17.349Z,101769.13
2022-09-10T00:13:46.928Z,101760.25
2022-09-10T00:16:19.141Z,101769.13
2022-09-10T00:18:48.509Z,101766.38
2022-09-10T00:21:18.937Z,101763.69
2022-09-10T00:23:46.798Z,101768.88
2022-09-10T00:26:19.881Z,101763.63
2022-09-10T00:28:49.925Z,101753.78
2022-09-10T00:31:18.053Z,101766.19
2022-09-10T00:33:45.960Z,101748.28
2022-09-10T00:36:18.330Z,101714.25
2022-09-10T00:38:46.727Z,101761.56
2022-09-10T00:41:15.565Z,101727.81
2022-09-10T00:43:51.170Z,101750.69
2022-09-10T00:46:37.209Z,101733.44
2022-09-10T00:49:15.966Z,101754.91
2022-09-10T00:51:46.790Z,101760.09
2022-09-10T00:54:15.986Z,101761.06
2022-09-10T00:56:44.632Z,101730.69
2022-09-10T00:59:18.658Z,101741.31
2022-09-10T01:01:47.438Z,101748.56
2022-09-10T01:04:15.643Z,101736.91
2022-09-10T01:06:46.361Z,101740.47
2022-09-10T01:09:15.405Z,101744.34
2022-09-10T01:11:58.941Z,101744.44
2022-09-10T01:14:57.596Z,101744.44
2022-09-10T01:17:32.521Z,101741.81
2022-09-10T01:20:35.281Z,101737.53
2022-09-10T01:23:32.992Z,101737.53
2022-09-10T01:26:13.794Z,101738.22
2022-09-10T01:28:48.913Z,101717.59
2022-09-10T01:31:23.936Z,101729.25
2022-09-10T01:34:02.135Z,101725.75
2022-09-10T01:36:35.077Z,101722.19
2022-09-10T01:39:03.798Z,101728.06
2022-09-10T01:41:32.142Z,101727.81
2022-09-10T01:44:10.055Z,101727.59
2022-09-10T01:46:46.620Z,101713.09
2022-09-10T01:49:29.060Z,101656.53
2022-09-10T01:52:12.212Z,101715.66
2022-09-10T01:54:52.563Z,101721.25
2022-09-10T01:57:29.729Z,101676.66
2022-09-10T02:00:07.259Z,101719.63
2022-09-10T02:02:39.617Z,101711.66
2022-09-10T02:05:09.692Z,101717.97
2022-09-10T02:07:39.553Z,101716.50
2022-09-10T02:10:10.550Z,101715.66
2022-09-10T02:12:40.082Z,101715.53
2022-09-10T02:15:11.685Z,101716.38
2022-09-10T02:17:40.641Z,101718.22
2022-09-10T02:20:13.793Z,101717.38
2022-09-10T02:22:48.905Z,101714.78
2022-09-10T02:25:17.501Z,101688.75
2022-09-10T02:27:45.833Z,101721.16
2022-09-10T02:30:17.014Z,101708.06
2022-09-10T02:32:45.006Z,101678.56
2022-09-10T02:35:12.801Z,101709.25
2022-09-10T02:37:40.673Z,101706.75
2022-09-10T02:40:09.669Z,101699.66
2022-09-10T02:42:38.249Z,101699.16
2022-09-10T02:45:07.063Z,101702.72
2022-09-10T02:47:36.400Z,101681.31
2022-09-10T02:50:04.321Z,101695.56
2022-09-10T02:52:33.196Z,101688.53
2022-09-10T02:55:01.253Z,101711.75
2022-09-10T02:57:29.825Z,101645.72
2022-09-10T02:59:57.896Z,101707.53
2022-09-10T03:02:26.241Z,101696.78
2022-09-10T03:04:55.434Z,101701.44
2022-09-10T03:07:23.328Z,101702.53
2022-09-10T03:09:51.257Z,101694.78
2022-09-10T03:12:19.068Z,101695.81
2022-09-10T03:14:47.335Z,101699.44
2022-09-10T03:17:15.346Z,101692.53
2022-09-10T03:19:43.680Z,101689.16
2022-09-10T03:22:12.976Z,101679.16
2022-09-10T03:24:42.337Z,101691.94
2022-09-10T03:27:10.713Z,101690.41
2022-09-10T03:29:38.682Z,101694.88
2022-09-10T03:32:07.177Z,101694.09
2022-09-10T03:34:35.058Z,101651.28
2022-09-10T03:37:03.309Z,101665.78
2022-09-10T03:39:32.759Z,101682.97
2022-09-10T03:42:00.639Z,101687.38
2022-09-10T03:44:28.558Z,101685.66
2022-09-10T03:46:56.450Z,101684.75
2022-09-10T03:49:24.294Z,101639.94
2022-09-10T03:51:52.235Z,101653.44
2022-09-10T03:54:20.624Z,101688.44
2022-09-10T03:56:49.777Z,101672.59
2022-09-10T03:59:17.809Z,101678.31
2022-09-10T04:01:45.789Z,101562.84
2022-09-10T04:04:14.930Z,101687.31
2022-09-10T04:06:44.545Z,101693.63
2022-09-10T04:09:12.565Z,101684.09
2022-09-10T04:11:40.718Z,101670.13
2022-09-10T04:14:10.088Z,101658.72
2022-09-10T04:16:38.566Z,101661.47
2022-09-10T04:19:06.478Z,101677.81
2022-09-10T04:21:34.296Z,101672.72
2022-09-10T04:24:03.429Z,101676.34
2022-09-10T04:26:31.268Z,101668.53
2022-09-10T04:28:59.389Z,101671.22
2022-09-10T04:31:29.072Z,101674.78
2022-09-10T04:33:56.905Z,101659.66
2022-09-10T04:36:25.749Z,101668.75
2022-09-10T04:38:53.815Z,101670.53
2022-09-10T04:41:21.649Z,101675.91
2022-09-10T04:43:49.518Z,101613.53
2022-09-10T04:46:18.109Z,101403.44
2022-09-10T04:48:47.515Z,101647.06
2022-09-10T04:51:16.873Z,101683.66
2022-09-10T04:53:45.965Z,101674.19
2022-09-10T04:56:14.480Z,101671.72
2022-09-10T04:58:44.139Z,101660.13
2022-09-10T05:01:12.789Z,101657.75
2022-09-10T05:03:40.689Z,101665.97
2022-09-10T05:06:10.177Z,101608.00
2022-09-10T05:08:38.549Z,101617.91
2022-09-10T05:11:06.673Z,101656.59
2022-09-10T05:13:34.528Z,101673.59
2022-09-10T05:16:02.708Z,101670.22
2022-09-10T05:18:30.619Z,101666.84
2022-09-10T05:20:58.529Z,101672.31
2022-09-10T05:23:27.901Z,101640.59
2022-09-10T05:25:56.816Z,101663.94
2022-09-10T05:28:25.053Z,101664.16
2022-09-10T05:30:53.012Z,101627.66
2022-09-10T05:33:21.468Z,101664.50
2022-09-10T05:35:51.767Z,101659.38
2022-09-10T05:38:20.223Z,101655.09
2022-09-10T05:40:49.757Z,101638.31
2022-09-10T05:43:17.679Z,101661.66
2022-09-10T05:45:45.824Z,101655.69
2022-09-10T05:48:14.210Z,101659.31
2022-09-10T05:50:42.018Z,101665.66
2022-09-10T05:53:10.518Z,101658.88
2022-09-10T05:55:38.787Z,101660.81
2022-09-10T05:58:08.086Z,101670.53
2022-09-10T06:00:36.627Z,101650.38
2022-09-10T06:03:05.557Z,101661.97
2022-09-10T06:05:33.517Z,101662.91
2022-09-10T06:08:04.361Z,101657.75
2022-09-10T06:10:36.002Z,101658.69
2022-09-10T06:13:04.101Z,101656.09
2022-09-10T06:15:35.505Z,101658.88
2022-09-10T06:18:03.296Z,101665.97
2022-09-10T06:20:31.289Z,101666.00
2022-09-10T06:22:59.073Z,101667.84
2022-09-10T06:25:27.398Z,101666.09
2022-09-10T06:27:55.425Z,101601.78
2022-09-10T06:30:23.334Z,101665.28
2022-09-10T06:32:52.593Z,101666.19
2022-09-10T06:35:22.244Z,101662.66
2022-09-10T06:37:50.301Z,101663.56
2022-09-10T06:40:18.657Z,101673.34
2022-09-10T06:42:47.017Z,101672.56
2022-09-10T06:45:14.960Z,101662.97
2022-09-10T06:50:32.297Z,101664.94
2022-09-10T06:53:00.105Z,101659.75
2022-09-10T06:55:27.873Z,101662.41
2022-09-10T06:57:55.841Z,101653.50
2022-09-10T07:00:23.937Z,101663.47
2022-09-10T07:02:53.478Z,101632.47
2022-09-10T07:05:21.491Z,101663.06
2022-09-10T07:07:50.671Z,101666.78
2022-09-10T07:10:18.566Z,101664.41
2022-09-10T07:12:46.694Z,101657.53
2022-09-10T07:15:14.706Z,101641.63
2022-09-10T07:17:42.509Z,101651.56
2022-09-10T07:20:10.780Z,101656.19
2022-09-10T07:22:39.307Z,101654.50
2022-09-10T07:25:09.713Z,101653.78
2022-09-10T07:27:37.925Z,101655.63
2022-09-10T07:30:06.721Z,101646.88
2022-09-10T07:32:35.267Z,101649.53
2022-09-10T07:35:03.375Z,101646.97
2022-09-10T07:37:31.508Z,101647.88
2022-09-10T07:39:59.903Z,101615.78
2022-09-10T07:42:29.857Z,101647.06
2022-09-10T07:44:57.830Z,101641.88
2022-09-10T07:47:26.030Z,101647.28
2022-09-10T07:49:54.524Z,101630.44
2022-09-10T07:52:22.531Z,101643.03
2022-09-10T07:54:50.533Z,101641.47
2022-09-10T07:57:18.553Z,101648.66
2022-09-10T07:59:47.745Z,101647.88
2022-09-10T08:02:16.675Z,101591.94
2022-09-10T08:04:46.573Z,101645.50
2022-09-10T08:07:17.294Z,101598.28
2022-09-10T08:09:45.253Z,101639.56
2022-09-10T08:12:13.198Z,101644.88
2022-09-10T08:14:42.463Z,101644.94
2022-09-10T08:17:11.751Z,101645.03
2022-09-10T08:19:39.861Z,101613.81
2022-09-10T08:22:12.777Z,101618.31
2022-09-10T08:24:41.668Z,101580.06
2022-09-10T08:27:12.041Z,101616.72
2022-09-10T08:29:39.924Z,101654.22
2022-09-10T08:32:07.938Z,101652.56
2022-09-10T08:34:37.237Z,101644.69
2022-09-10T08:37:05.105Z,101648.38
2022-09-10T08:39:33.233Z,101645.84
2022-09-10T08:42:04.896Z,101635.44
2022-09-10T08:44:41.141Z,101611.44
2022-09-10T08:47:23.126Z,101558.06
2022-09-10T08:49:55.773Z,101645.50
2022-09-10T08:52:31.217Z,101651.72
2022-09-10T08:55:06.016Z,101643.84
2022-09-10T08:57:38.036Z,101648.28
2022-09-10T09:00:09.355Z,101651.75
2022-09-10T09:02:49.528Z,101643.81
2022-09-10T09:05:21.809Z,101580.59
2022-09-10T09:07:51.207Z,101635.81
2022-09-10T09:10:27.899Z,101637.59
2022-09-10T09:13:17.534Z,101626.97
2022-09-10T09:15:54.183Z,101632.19
2022-09-10T09:18:31.235Z,101607.25
2022-09-10T09:21:09.701Z,101640.13
2022-09-10T09:24:12.321Z,101633.97
2022-09-10T09:26:39.436Z,101607.28
2022-09-10T09:29:13.105Z,101629.66
2022-09-10T09:31:46.483Z,101595.81
2022-09-10T09:34:20.366Z,101632.38
2022-09-10T09:36:52.833Z,101630.66
2022-09-10T09:39:25.752Z,101628.06
2022-09-10T09:42:03.361Z,101599.59
2022-09-10T09:44:38.885Z,101624.63
2022-09-10T09:47:08.449Z,101623.75
2022-09-10T09:49:36.435Z,101624.66
2022-09-10T09:52:20.289Z,101621.06
2022-09-10T09:57:43.128Z,101630.97
2022-09-10T10:00:36.328Z,101634.53
2022-09-10T10:03:08.330Z,101630.13
2022-09-10T10:05:36.401Z,101629.22
2022-09-10T10:08:05.764Z,101598.00
2022-09-10T10:10:33.735Z,101630.09
2022-09-10T10:13:01.584Z,101579.22
2022-09-10T10:15:38.230Z,101627.25
2022-09-10T10:18:31.729Z,101628.09
2022-09-10T10:21:15.000Z,101629.91
2022-09-10T10:23:44.918Z,101628.19
2022-09-10T10:26:34.895Z,101624.84
2022-09-10T10:29:06.444Z,101629.31
2022-09-10T10:31:41.598Z,101623.22
2022-09-10T10:34:34.776Z,101622.38
2022-09-10T10:37:09.896Z,101618.13
2022-09-10T10:39:56.429Z,101607.72
2022-09-10T10:42:31.148Z,101615.94
2022-09-10T10:45:32.908Z,101574.16
2022-09-10T10:48:10.102Z,101609.97
2022-09-10T10:50:47.804Z,101612.66
2022-09-10T10:53:30.601Z,101610.06
2022-09-10T10:56:09.697Z,101528.16
2022-09-10T10:58:56.124Z,101504.09
2022-09-10T11:01:25.908Z,101569.16
2022-09-10T11:04:03.017Z,101565.53
2022-09-10T11:06:38.390Z,101610.09
2022-09-10T11:09:14.101Z,101609.25
2022-09-10T11:11:55.269Z,101584.44
2022-09-10T11:14:30.283Z,101576.41
2022-09-10T11:17:03.254Z,101606.81
2022-09-10T11:19:37.479Z,101555.25
2022-09-10T11:22:13.574Z,101602.50
2022-09-10T11:24:46.698Z,101604.28
2022-09-10T11:27:20.261Z,101600.75
2022-09-10T11:29:55.166Z,101600.81
2022-09-10T11:32:30.353Z,101604.38
2022-09-10T11:35:07.317Z,101599.03
2022-09-10T11:37:54.896Z,101595.47
2022-09-10T11:40:31.131Z,101593.75
2022-09-10T11:43:07.428Z,101599.06
2022-09-10T11:45:42.981Z,101599.97
2022-09-10T11:48:19.687Z,101600.03
2022-09-10T11:50:56.433Z,101471.88
2022-09-10T11:53:26.183Z,101557.25
2022-09-10T11:56:24.977Z,101596.38
2022-09-10T11:59:08.656Z,101585.81
2022-09-10T12:02:07.638Z,101554.69
2022-09-10T12:04:47.694Z,101592.06
2022-09-10T12:07:26.727Z,101568.06
2022-09-10T12:10:12.259Z,101579.63
2022-09-10T12:12:45.228Z,101583.13
2022-09-10T12:15:20.766Z,101581.34
2022-09-10T12:17:53.566Z,101585.84
2022-09-10T12:20:27.086Z,101526.31
2022-09-10T12:22:57.011Z,101578.81
2022-09-10T12:25:34.244Z,101570.03
2022-09-10T12:28:06.527Z,101577.09
2022-09-10T12:31:03.853Z,101566.59
2022-09-10T12:34:16.559Z,101558.53
2022-09-10T12:37:22.496Z,101567.38
2022-09-10T12:39:50.801Z,101566.38
2022-09-10T12:42:28.901Z,101574.31
2022-09-10T12:44:57.372Z,101565.41
2022-09-10T12:47:53.753Z,101569.75
2022-09-10T12:50:34.838Z,101567.94
2022-09-10T12:53:33.213Z,101567.94
2022-09-10T12:56:03.426Z,101569.66
2022-09-10T12:58:47.585Z,101566.16
2022-09-10T13:01:25.644Z,101562.59
2022-09-10T13:03:58.356Z,101565.22
2022-09-10T13:06:38.457Z,101565.19
2022-09-10T13:09:18.868Z,101557.16
2022-09-10T13:11:50.976Z,101565.09
2022-09-10T13:14:23.249Z,101470.69
2022-09-10T13:16:51.405Z,101558.81
2022-09-10T13:19:58.003Z,101562.34
2022-09-10T13:22:33.702Z,101532.81
2022-09-10T13:25:24.228Z,101524.78
2022-09-10T13:27:53.933Z,101555.91
2022-09-10T13:30:23.660Z,101534.47
2022-09-10T13:32:55.933Z,101522.84
2022-09-10T13:35:53.010Z,101551.41
2022-09-10T13:39:03.251Z,101543.44
2022-09-10T13:41:58.680Z,101543.41
2022-09-10T13:44:48.456Z,101530.97
2022-09-10T13:47:21.727Z,101487.28
2022-09-10T13:49:59.655Z,101537.13
2022-09-10T13:52:32.231Z,101534.44
2022-09-10T13:55:02.109Z,101500.56
2022-09-10T13:57:35.090Z,101528.13
2022-09-10T14:00:08.828Z,101520.03
2022-09-10T14:02:44.859Z,101521.81
2022-09-10T14:05:32.800Z,101489.81
2022-09-10T14:08:05.344Z,101520.97
2022-09-10T14:10:50.588Z,101504.00
2022-09-10T14:13:24.786Z,101519.19
2022-09-10T14:15:56.984Z,101525.34
2022-09-10T14:18:31.966Z,101522.75
2022-09-10T14:21:01.013Z,101525.34
2022-09-10T14:23:30.237Z,101495.09
2022-09-10T14:26:15.621Z,101529.06
2022-09-10T14:28:51.541Z,101523.84
2022-09-10T14:31:28.250Z,101513.19
2022-09-10T14:33:56.915Z,101531.94
2022-09-10T14:36:33.633Z,101526.72
2022-09-10T14:39:07.018Z,101507.22
2022-09-10T14:41:37.220Z,101525.06
2022-09-10T14:44:29.886Z,101525.06
2022-09-10T14:47:01.429Z,101527.69
2022-09-10T14:49:31.681Z,101528.59
2022-09-10T14:52:01.580Z,101533.94
2022-09-10T14:54:32.184Z,101504.53
2022-09-10T14:57:03.132Z,101533.00
2022-09-10T14:59:33.375Z,101533.00
2022-09-10T15:02:06.591Z,101514.28
2022-09-10T15:04:34.523Z,101518.72
2022-09-10T15:07:02.903Z,101533.06
2022-09-10T15:09:31.681Z,101483.25
2022-09-10T15:12:03.428Z,101533.94
2022-09-10T15:14:32.666Z,101538.31
2022-09-10T15:17:02.077Z,101530.31
2022-09-10T15:19:30.048Z,101528.56
2022-09-10T15:21:58.224Z,101514.31
2022-09-10T15:24:26.206Z,101532.97
2022-09-10T15:26:56.627Z,101508.91
2022-09-10T15:29:26.214Z,101532.97
2022-09-10T15:31:54.557Z,101533.00
2022-09-10T15:34:23.828Z,101533.91
2022-09-10T15:36:53.269Z,101455.56
2022-09-10T15:39:21.097Z,101374.59
2022-09-10T15:41:49.022Z,101532.06
2022-09-10T15:44:18.502Z,101486.56
2022-09-10T15:46:47.164Z,101538.16
2022-09-10T15:49:15.061Z,101480.38
2022-09-10T15:51:44.713Z,101493.75
2022-09-10T15:54:12.948Z,101519.53
2022-09-10T15:56:41.002Z,101535.63
2022-09-10T15:59:10.413Z,101506.28
2022-09-10T16:01:39.455Z,101516.06
2022-09-10T16:04:07.643Z,101528.44
2022-09-10T16:06:39.465Z,101472.41
2022-09-10T16:09:10.444Z,101530.19
2022-09-10T16:11:41.705Z,101525.69
2022-09-10T16:14:13.768Z,101520.22
2022-09-10T16:16:42.044Z,101463.09
2022-09-10T16:19:13.066Z,101512.00
2022-09-10T16:21:41.207Z,101485.16
2022-09-10T16:24:11.195Z,101534.03
2022-09-10T16:26:41.153Z,101533.06
2022-09-10T16:29:14.220Z,101535.66
2022-09-10T16:31:43.171Z,101459.94
2022-09-10T16:34:13.479Z,101531.00
2022-09-10T16:36:41.496Z,101514.97
2022-09-10T16:39:12.989Z,101522.13
2022-09-10T16:41:42.040Z,101522.09
2022-09-10T16:44:11.121Z,101523.75
2022-09-10T16:46:39.585Z,101510.31
2022-09-10T16:49:12.534Z,101511.13
2022-09-10T16:51:40.890Z,101533.31
2022-09-10T16:54:11.263Z,101531.50
2022-09-10T16:56:42.233Z,101532.34
2022-09-10T16:59:15.024Z,101534.03
2022-09-10T17:01:45.039Z,101529.50
2022-09-10T17:04:18.639Z,101492.06
2022-09-10T17:06:48.225Z,101534.69
2022-09-10T17:09:17.645Z,101530.13
2022-09-10T17:11:45.480Z,101528.38
2022-09-10T17:14:13.365Z,101523.84
2022-09-10T17:16:43.604Z,101518.59
2022-09-10T17:19:14.092Z,101474.91
2022-09-10T17:21:43.987Z,101501.47
2022-09-10T17:24:13.617Z,101523.72
2022-09-10T17:26:43.102Z,101525.50
2022-09-10T17:29:14.695Z,101526.31
2022-09-10T17:31:43.285Z,101529.75
2022-09-10T17:34:13.251Z,101505.72
2022-09-10T17:36:42.430Z,101525.25
2022-09-10T17:39:10.384Z,101525.16
2022-09-10T17:41:39.304Z,101525.94
2022-09-10T17:44:09.237Z,101463.53
2022-09-10T17:46:37.204Z,101484.91
2022-09-10T17:49:06.347Z,101521.44
2022-09-10T17:51:37.666Z,101529.38
2022-09-10T17:54:05.530Z,101417.94
2022-09-10T17:56:33.450Z,101532.81
2022-09-10T17:59:03.653Z,101508.81
2022-09-10T18:01:36.225Z,101504.28
2022-09-10T18:04:04.376Z,101527.47
2022-09-10T18:06:32.353Z,101514.94
2022-09-10T18:09:01.844Z,101530.94
2022-09-10T18:11:32.408Z,101527.41
2022-09-10T18:14:01.301Z,101527.38
2022-09-10T18:16:31.296Z,101526.47
2022-09-10T18:19:03.477Z,101533.50
2022-09-10T18:21:33.580Z,101527.28
2022-09-10T18:24:03.422Z,101532.56
2022-09-10T18:26:33.884Z,101536.06
2022-09-10T18:29:03.537Z,101542.22
2022-09-10T18:31:33.933Z,101542.22
2022-09-10T18:34:04.194Z,101545.72
2022-09-10T18:36:32.514Z,101541.28
2022-09-10T18:39:03.681Z,101545.69
2022-09-10T18:41:33.596Z,101550.97
2022-09-10T18:44:04.093Z,101500.16
2022-09-10T18:46:33.601Z,101550.91
2022-09-10T18:49:02.372Z,101524.19
2022-09-10T18:51:32.178Z,101539.25
2022-09-10T18:54:01.538Z,101546.44
2022-09-10T18:56:31.905Z,101553.47
2022-09-10T18:59:03.204Z,101527.63
2022-09-10T19:01:31.734Z,101548.16
2022-09-10T19:03:59.908Z,101448.22
2022-09-10T19:06:30.144Z,101557.78
2022-09-10T19:09:01.423Z,101560.41
2022-09-10T19:11:33.171Z,101563.88
2022-09-10T19:14:02.250Z,101544.28
2022-09-10T19:16:32.587Z,101528.13
2022-09-10T19:19:03.437Z,101559.47
2022-09-10T19:21:35.341Z,101562.06
2022-09-10T19:24:05.238Z,101564.72
2022-09-10T19:26:34.873Z,101561.22
2022-09-10T19:29:03.986Z,101557.66
2022-09-10T19:31:34.223Z,101563.78
2022-09-10T19:34:04.540Z,101560.28
2022-09-10T19:36:34.613Z,101554.06
2022-09-10T19:39:05.186Z,101566.34
2022-09-10T19:41:34.056Z,101561.91
2022-09-10T19:44:02.659Z,101562.72
2022-09-10T19:46:31.160Z,101565.38
2022-09-10T19:49:00.389Z,101552.94
2022-09-10T19:51:29.998Z,101553.78
2022-09-10T19:53:59.628Z,101546.69
2022-09-10T19:56:31.303Z,101564.44
2022-09-10T19:59:00.683Z,101555.59
2022-09-10T20:01:31.473Z,101554.59
2022-09-10T20:04:01.755Z,101561.66
2022-09-10T20:06:30.613Z,101558.13
2022-09-10T20:08:58.788Z,101557.22
2022-09-10T20:11:30.000Z,101566.00
2022-09-10T20:14:01.104Z,101559.84
2022-09-10T20:16:29.965Z,101558.06
2022-09-10T20:18:57.799Z,101544.69
2022-09-10T20:21:28.029Z,101560.69
2022-09-10T20:23:56.854Z,101528.72
2022-09-10T20:26:26.366Z,101551.03
2022-09-10T20:28:57.541Z,101546.66
2022-09-10T20:31:27.123Z,101551.88
2022-09-10T20:33:56.593Z,101528.78
2022-09-10T20:36:25.966Z,101543.91
2022-09-10T20:38:54.626Z,101534.94
2022-09-10T20:41:23.359Z,101546.53
2022-09-10T20:43:53.222Z,101517.00
2022-09-10T20:46:23.733Z,101545.63
2022-09-10T20:48:52.754Z,101540.34
2022-09-10T20:51:21.366Z,101516.22
2022-09-10T20:53:49.749Z,101529.63
2022-09-10T20:56:19.957Z,101539.38
2022-09-10T20:58:48.468Z,101525.09
2022-09-10T21:01:18.988Z,101538.50
2022-09-10T21:03:49.980Z,101544.66
2022-09-10T21:06:20.373Z,101536.72
2022-09-10T21:08:49.436Z,101536.69
2022-09-10T21:11:19.718Z,101535.00
2022-09-10T21:13:49.764Z,101536.69
2022-09-10T21:16:19.632Z,101535.81
2022-09-10T21:18:54.603Z,101523.38
2022-09-10T21:21:25.780Z,101536.63
2022-09-10T21:23:55.372Z,101526.00
2022-09-10T21:26:26.410Z,101527.72
2022-09-10T21:28:57.146Z,101528.53
2022-09-10T21:31:27.322Z,101520.53
2022-09-10T21:34:02.772Z,101513.34
2022-09-10T21:36:32.184Z,101515.06
2022-09-10T21:39:02.007Z,101526.69
2022-09-10T21:41:32.486Z,101533.69
2022-09-10T21:44:01.458Z,101509.78
2022-09-10T21:46:29.761Z,101515.94
2022-09-10T21:48:59.523Z,101527.53
2022-09-10T21:51:28.364Z,101531.06
2022-09-10T21:53:58.287Z,101535.41
2022-09-10T21:56:27.866Z,101527.47
2022-09-10T21:58:56.674Z,101520.25
2022-09-10T22:01:27.134Z,101521.28
2022-09-10T22:03:59.730Z,101513.19
2022-09-10T22:06:29.453Z,101530.94
2022-09-10T22:08:59.262Z,101528.31
2022-09-10T22:11:31.616Z,101527.38
2022-09-10T22:14:01.190Z,101531.81
2022-09-10T22:16:31.146Z,101513.03
2022-09-10T22:19:03.277Z,101528.28
2022-09-10T22:21:31.592Z,101534.44
2022-09-10T22:24:00.040Z,101526.50
2022-09-10T22:26:29.321Z,101521.09
2022-09-10T22:28:59.425Z,101533.44
2022-09-10T22:31:29.411Z,101533.44
2022-09-10T22:33:58.948Z,101532.50
2022-09-10T22:36:31.512Z,101509.38
2022-09-10T22:39:01.108Z,101525.44
2022-09-10T22:41:31.618Z,101524.56
2022-09-10T22:43:59.747Z,101526.28
2022-09-10T22:46:28.614Z,101445.06
2022-09-10T22:48:56.857Z,101527.94
2022-09-10T22:51:26.868Z,101518.97
2022-09-10T22:53:57.826Z,101519.03
2022-09-10T22:56:27.184Z,101521.59
2022-09-10T22:58:56.367Z,101533.19
2022-09-10T23:01:27.681Z,101530.50
2022-09-10T23:03:57.040Z,101526.97
2022-09-10T23:06:26.475Z,101506.25
2022-09-10T23:08:57.577Z,101531.34
2022-09-10T23:11:27.573Z,101526.09
2022-09-10T23:13:57.475Z,101526.97
2022-09-10T23:16:28.994Z,101525.22
2022-09-10T23:18:59.563Z,101485.19
2022-09-10T23:21:30.065Z,101517.31
2022-09-10T23:24:00.890Z,101519.06
2022-09-10T23:26:29.650Z,101521.66
2022-09-10T23:28:58.032Z,101529.56
2022-09-10T23:31:28.426Z,101523.41
2022-09-10T23:33:59.362Z,101514.53
2022-09-10T23:36:28.090Z,101520.03
2022-09-10T23:38:55.910Z,101512.16
2022-09-10T23:41:25.184Z,101509.56
2022-09-10T23:43:53.141Z,101506.84
2022-09-10T23:46:21.074Z,101513.97
2022-09-10T23:48:49.542Z,101509.50
2022-09-10T23:51:19.879Z,101508.63
2022-09-10T23:53:49.082Z,101514.75
2022-09-10T23:56:18.878Z,101512.09
2022-09-10T23:58:48.523Z,101501.50
